createdAt,value
2022-12-04T00:04:21.002Z,15.20
2022-12-04T00:09:24.415Z,15.10
2022-12-04T00:14:27.892Z,14.90
2022-12-04T00:19:31.273Z,15.80
2022-12-04T00:24:35.171Z,12.90
2022-12-04T00:29:38.583Z,13.80
2022-12-04T00:34:41.997Z,14.50
2022-12-04T00:39:45.516Z,15.00
2022-12-04T00:44:48.928Z,15.90
2022-12-04T00:49:52.521Z,13.60
2022-12-04T00:54:56.174Z,15.50
2022-12-04T01:00:00.349Z,12.40
2022-12-04T01:05:04.251Z,13.30
2022-12-04T01:10:12.151Z,11.10
2022-12-04T01:15:16.098Z,13.10
2022-12-04T01:20:20.161Z,14.00
2022-12-04T01:25:23.544Z,13.70
2022-12-04T01:30:26.943Z,11.30
2022-12-04T01:35:30.717Z,11.30
2022-12-04T01:40:34.333Z,12.70
2022-12-04T01:45:41.543Z,11.70
2022-12-04T01:50:46.084Z,12.00
2022-12-04T01:55:50.124Z,10.30
2022-12-04T02:00:58.514Z,10.90
2022-12-04T02:06:02.544Z,12.30
2022-12-04T02:11:05.817Z,11.20
2022-12-04T02:16:35.635Z,11.10
2022-12-04T02:21:47.184Z,12.50
2022-12-04T02:26:56.586Z,11.90
2022-12-04T02:32:23.446Z,11.40
2022-12-04T02:43:05.807Z,10.70
2022-12-04T02:48:09.433Z,10.50
2022-12-04T02:53:18.067Z,8.80
2022-12-04T02:58:27.605Z,10.50
2022-12-04T03:03:33.808Z,10.80
2022-12-04T03:08:48.092Z,9.10
2022-12-04T03:14:00.297Z,11.00
2022-12-04T03:19:16.966Z,10.20
2022-12-04T03:24:27.086Z,9.40
2022-12-04T03:29:43.720Z,10.10
2022-12-04T03:34:57.253Z,10.90
2022-12-04T03:40:15.628Z,9.40
2022-12-04T03:45:37.454Z,9.90
2022-12-04T03:50:50.719Z,9.90
2022-12-04T03:56:10.355Z,9.70
2022-12-04T04:01:17.998Z,8.10
2022-12-04T04:06:26.344Z,10.50
2022-12-04T04:11:38.674Z,10.00
2022-12-04T04:17:08.331Z,10.10
2022-12-04T04:22:30.932Z,9.40
2022-12-04T04:27:34.331Z,9.50
2022-12-04T04:32:49.733Z,8.80
2022-12-04T04:38:08.559Z,10.00
2022-12-04T04:43:32.967Z,10.10
2022-12-04T04:48:51.350Z,8.80
2022-12-04T04:53:58.582Z,10.70
2022-12-04T04:59:01.952Z,8.20
2022-12-04T05:04:06.817Z,8.60
2022-12-04T05:09:10.179Z,9.20
2022-12-04T05:14:13.572Z,10.30
2022-12-04T05:19:35.478Z,9.80
2022-12-04T05:24:38.976Z,8.10
2022-12-04T05:29:42.351Z,8.40
2022-12-04T05:34:50.931Z,8.80
2022-12-04T05:39:54.756Z,8.80
2022-12-04T05:44:58.585Z,8.80
2022-12-04T05:50:01.937Z,9.30
2022-12-04T05:55:06.142Z,7.70
2022-12-04T06:00:10.176Z,7.70
2022-12-04T06:05:16.988Z,8.60
2022-12-04T06:10:20.367Z,8.10
2022-12-04T06:15:24.543Z,9.30
2022-12-04T06:20:28.439Z,7.50
2022-12-04T06:25:31.943Z,9.50
2022-12-04T06:30:35.335Z,7.20
2022-12-04T06:35:38.733Z,7.30
2022-12-04T06:40:42.064Z,9.10
2022-12-04T06:45:45.599Z,8.50
2022-12-04T06:50:49.071Z,8.50
2022-12-04T06:55:52.421Z,7.20
2022-12-04T07:00:57.259Z,7.90
2022-12-04T07:06:20.047Z,9.20
2022-12-04T07:11:24.118Z,8.70
2022-12-04T07:16:29.157Z,8.90
2022-12-04T07:21:33.579Z,8.20
2022-12-04T07:26:37.289Z,8.20
2022-12-04T07:31:41.035Z,8.30
2022-12-04T07:36:44.448Z,7.00
2022-12-04T07:41:47.795Z,9.40
2022-12-04T07:46:51.220Z,7.20
2022-12-04T07:51:54.617Z,8.50
2022-12-04T07:56:58.503Z,8.80
2022-12-04T08:02:01.980Z,7.50
2022-12-04T08:07:05.478Z,11.80
2022-12-04T08:12:08.983Z,11.80
2022-12-04T08:17:12.508Z,8.40
2022-12-04T08:22:20.353Z,8.60
2022-12-04T08:27:26.833Z,7.70
2022-12-04T08:32:30.211Z,10.80
2022-12-04T08:37:33.669Z,10.30
2022-12-04T08:42:37.013Z,9.60
2022-12-04T08:47:40.377Z,11.50
2022-12-04T08:52:43.777Z,10.90
2022-12-04T08:57:47.157Z,10.10
2022-12-04T09:02:50.590Z,11.20
2022-12-04T09:07:54.013Z,11.60
2022-12-04T09:12:57.490Z,10.10
2022-12-04T09:18:01.822Z,10.60
2022-12-04T09:23:06.091Z,10.50
2022-12-04T09:28:09.491Z,11.10
2022-12-04T09:33:13.193Z,9.90
2022-12-04T09:38:16.524Z,10.90
2022-12-04T09:43:36.712Z,9.10
2022-12-04T09:48:43.292Z,9.80
2022-12-04T09:53:56.643Z,9.40
2022-12-04T09:59:17.304Z,13.00
2022-12-04T10:04:20.852Z,10.20
2022-12-04T10:09:40.420Z,10.00
2022-12-04T10:15:05.811Z,9.90
2022-12-04T10:20:45.987Z,10.50
2022-12-04T10:25:52.311Z,9.30
2022-12-04T10:30:59.923Z,8.80
2022-12-04T10:36:04.127Z,9.80
2022-12-04T10:41:18.164Z,9.70
2022-12-04T10:46:23.928Z,9.20
2022-12-04T10:51:29.337Z,7.70
2022-12-04T10:56:32.705Z,8.00
2022-12-04T11:01:36.223Z,9.20
2022-12-04T11:06:39.989Z,8.70
2022-12-04T11:11:43.357Z,7.30
2022-12-04T11:16:50.248Z,10.20
2022-12-04T11:21:56.383Z,6.90
2022-12-04T11:27:00.691Z,7.80
2022-12-04T11:32:08.017Z,7.50
2022-12-04T11:37:22.679Z,8.70
2022-12-04T11:42:29.608Z,7.40
2022-12-04T11:47:34.010Z,7.00
2022-12-04T11:52:52.642Z,7.00
2022-12-04T11:58:18.024Z,10.00
2022-12-04T12:03:39.009Z,6.90
2022-12-04T12:08:42.462Z,7.50
2022-12-04T12:14:05.721Z,15.20
2022-12-04T12:19:17.793Z,12.70
2022-12-04T12:24:32.465Z,18.10
2022-12-04T12:29:51.220Z,14.30
2022-12-04T12:34:55.644Z,9.30
2022-12-04T12:39:59.350Z,9.50
2022-12-04T12:45:12.228Z,9.60
2022-12-04T12:50:44.995Z,9.90
2022-12-04T12:56:51.576Z,8.00
2022-12-04T13:02:01.120Z,7.90
2022-12-04T13:07:14.672Z,8.60
2022-12-04T13:12:20.717Z,10.60
2022-12-04T13:17:38.719Z,6.60
2022-12-04T13:23:20.025Z,8.80
2022-12-04T13:28:49.365Z,5.90
2022-12-04T13:34:17.321Z,9.60
2022-12-04T13:39:54.866Z,7.60
2022-12-04T13:45:03.238Z,7.30
2022-12-04T13:50:28.535Z,7.40
2022-12-04T13:55:40.242Z,5.80
2022-12-04T14:00:44.685Z,7.30
2022-12-04T14:05:48.457Z,5.70
2022-12-04T14:11:04.109Z,6.30
2022-12-04T14:16:16.766Z,6.10
2022-12-04T14:21:20.240Z,7.00
2022-12-04T14:27:09.992Z,6.30
2022-12-04T14:31:55.435Z,7.80
2022-12-04T14:37:00.241Z,8.10
2022-12-04T14:42:14.551Z,6.30
2022-12-04T14:47:42.084Z,7.40
2022-12-04T14:53:11.774Z,7.80
2022-12-04T14:58:36.274Z,5.80
2022-12-04T15:03:45.449Z,6.50
2022-12-04T15:09:16.863Z,6.20
2022-12-04T15:14:20.157Z,6.60
2022-12-04T15:19:23.449Z,5.40
2022-12-04T15:24:27.729Z,6.10
2022-12-04T15:29:45.669Z,6.80
2022-12-04T15:35:09.418Z,6.10
2022-12-04T15:40:31.484Z,6.70
2022-12-04T15:45:38.054Z,6.30
2022-12-04T15:50:42.437Z,6.60
2022-12-04T15:55:55.515Z,7.10
2022-12-04T16:01:06.646Z,6.60
2022-12-04T16:06:20.816Z,6.70
2022-12-04T16:11:30.587Z,8.10
2022-12-04T16:16:35.431Z,5.70
2022-12-04T16:21:38.828Z,6.00
2022-12-04T16:26:42.452Z,6.00
2022-12-04T16:31:46.375Z,5.90
2022-12-04T16:36:50.085Z,7.00
2022-12-04T16:41:53.526Z,5.90
2022-12-04T16:46:56.959Z,5.30
2022-12-04T16:52:00.355Z,5.70
2022-12-04T16:57:04.207Z,6.10
2022-12-04T17:02:16.591Z,5.20
2022-12-04T17:07:20.689Z,6.00
2022-12-04T17:12:24.004Z,6.60
2022-12-04T17:17:27.387Z,5.40
2022-12-04T17:22:31.366Z,6.70
2022-12-04T17:27:35.454Z,7.10
2022-12-04T17:32:38.799Z,5.30
2022-12-04T17:37:42.188Z,6.00
2022-12-04T17:42:45.542Z,6.30
2022-12-04T17:47:48.829Z,6.80
2022-12-04T17:52:52.361Z,6.50
2022-12-04T17:57:55.734Z,8.00
2022-12-04T18:02:59.150Z,7.90
2022-12-04T18:08:02.624Z,8.80
2022-12-04T18:13:06.092Z,6.60
2022-12-04T18:18:09.662Z,6.30
2022-12-04T18:25:59.762Z,9.80
2022-12-04T18:31:05.415Z,6.60
2022-12-04T18:36:16.591Z,6.80
2022-12-04T18:41:20.093Z,6.20
2022-12-04T18:46:24.897Z,5.20
2022-12-04T18:51:33.070Z,7.30
2022-12-04T18:56:36.909Z,6.20
2022-12-04T19:01:41.840Z,6.20
2022-12-04T19:06:50.699Z,6.50
2022-12-04T19:11:54.197Z,6.80
2022-12-04T19:16:57.757Z,6.00
2022-12-04T19:22:02.601Z,4.60
2022-12-04T19:27:12.355Z,5.20
2022-12-04T19:32:15.891Z,5.20
2022-12-04T19:37:19.394Z,5.20
2022-12-04T19:42:22.831Z,5.70
2022-12-04T19:47:26.755Z,6.50
2022-12-04T19:52:30.145Z,5.70
2022-12-04T19:57:33.589Z,5.50
2022-12-04T20:02:37.253Z,6.00
2022-12-04T20:07:40.890Z,6.50
2022-12-04T20:12:44.437Z,6.00
2022-12-04T20:17:47.851Z,4.50
2022-12-04T20:22:51.375Z,4.00
2022-12-04T20:27:54.935Z,5.90
2022-12-04T20:32:58.425Z,4.40
2022-12-04T20:38:03.529Z,5.50
2022-12-04T20:43:07.803Z,6.70
2022-12-04T20:48:13.577Z,4.40
2022-12-04T20:53:18.084Z,6.10
2022-12-04T20:58:23.554Z,4.50
2022-12-04T21:03:29.368Z,5.50
2022-12-04T21:08:52.662Z,6.50
2022-12-04T21:14:25.693Z,5.10
2022-12-04T21:19:30.291Z,4.60
2022-12-04T21:24:38.896Z,6.00
2022-12-04T21:29:43.858Z,4.80
2022-12-04T21:34:48.453Z,5.90
2022-12-04T21:39:51.942Z,9.60
2022-12-04T21:44:55.378Z,5.60
2022-12-04T21:50:00.010Z,23.70
2022-12-04T21:55:05.361Z,5.90
2022-12-04T22:00:09.261Z,6.60
2022-12-04T22:05:12.540Z,6.10
2022-12-04T22:10:15.868Z,6.60
2022-12-04T22:15:19.376Z,5.70
2022-12-04T22:20:23.814Z,7.70
2022-12-04T22:25:29.677Z,5.80
2022-12-04T22:30:34.775Z,4.90
2022-12-04T22:35:38.162Z,6.00
2022-12-04T22:45:39.042Z,4.40
2022-12-04T22:50:42.403Z,7.40
2022-12-04T22:55:45.774Z,4.50
2022-12-04T23:00:49.240Z,5.50
2022-12-04T23:05:52.761Z,6.00
2022-12-04T23:10:56.169Z,5.10
2022-12-04T23:16:02.454Z,5.70
2022-12-04T23:21:10.830Z,4.50
2022-12-04T23:26:17.111Z,4.20
2022-12-04T23:31:21.004Z,4.90
2022-12-04T23:36:25.175Z,4.30
2022-12-04T23:41:31.611Z,4.50
2022-12-04T23:46:34.975Z,4.90
2022-12-04T23:51:38.394Z,4.00
2022-12-04T23:56:41.888Z,4.10
